Startpagina
METAR-TAF:

METAR-TAF

Vliegvelden :

Kunming, China

Internationale luchthaven Kunming Changshui

breedte: 25-01N, lengte: 102-41E, hoogte: 1892 m

Actueel weer

Dit bericht is 30 minuten geleden gemaakt, om 16:00 UTC
Wind 2 kt uit variabele richting
Temperatuur 18°C
Vochtigheid 88%
Druk 1020 hPa
Zicht 10 km of meer
Weinig wolken op 2600 ft, Stapelwolken.
Gebroken wolken op 2600 ft
Gebroken wolken op 4000 ft

METAR: ZPPP 251600Z VRB01MPS 9999 FEW026TCU BKN026 BKN040 18/16 Q1020 NOSIG

Tijdstip: 00:30 (16:30 UTC)

Verwachting

Dit bericht is 9 uur en het 19 minuten geleden gemaakt, om 07:11 UTC
Verwachting geldig van 25 om 12 UTC tot 26 om 12 UTC
Wind 8 kt uit het oostzuidoosten
Zicht 10 km of meer
Verspreide wolken op 2300 ft
Gebroken wolken op 4000 ft

TAF: ZPPP 250711Z 2512/2612 12004MPS 9999 SCT023 BKN040 TX27/2608Z TN17/2523Z

Waarnemingen en weersverwachtingen van meer dan 4000 vliegvelden (METAR en TAF).

De beschikbare stations zijn de gele en rode punten op de kaart.

Ga met uw muis naar het station om de naam te zien.

Klik dan om waarnemingen en weersverwachtingen te zien.

kaart wijzigen: klik op de groene knoppen met een zwart kruis om in te zoomen, op de groene knop met een streepje om uit te zoomen of op de groene pijlen voor aangrenzende kaarten.


METAR-TAF: